Time;durP1;ratioP1;P1;durP2;ratioP2;P2;SDS_P1;SDS_P2;PMS_P1;PMS_P2;Temp;Humidity;BMP_temperature;BMP_pressure;BME280_temperature;BME280_humidity;BME280_pressure;Samples;Min_cycle;Max_cycle;Signal;HPM_P1;HPM_P2
2023/06/16 00:01:42;;;;;;;4.22;3.67;;;19.90;89.00;;;;;;5075353;28;20209;-68
2023/06/16 00:04:08;;;;;;;5.30;3.70;;;19.90;89.20;;;;;;5075147;28;20563;-68
2023/06/16 00:06:34;;;;;;;5.70;3.45;;;20.00;88.50;;;;;;5075045;28;20189;-68
2023/06/16 00:09:02;;;;;;;5.40;3.30;;;20.00;88.70;;;;;;5075254;28;20261;-68
2023/06/16 00:11:29;;;;;;;6.78;3.95;;;20.00;88.50;;;;;;5074978;28;20761;-68
2023/06/16 00:13:56;;;;;;;3.60;3.30;;;20.10;88.30;;;;;;5075021;28;20182;-68
2023/06/16 00:16:23;;;;;;;6.40;4.13;;;20.00;88.10;;;;;;5074957;28;20185;-68
2023/06/16 00:18:57;;;;;;;4.97;3.83;;;20.10;87.90;;;;;;5074850;28;20167;-68
2023/06/16 00:21:29;;;;;;;5.10;3.72;;;20.10;87.90;;;;;;5074723;28;20221;-68
2023/06/16 00:23:56;;;;;;;4.90;3.47;;;20.10;87.90;;;;;;5074898;28;20179;-68
2023/06/16 00:26:23;;;;;;;6.13;3.67;;;20.10;88.00;;;;;;5074826;28;20259;-68
2023/06/16 00:28:49;;;;;;;6.50;3.60;;;20.00;88.50;;;;;;5074714;28;20227;-68
2023/06/16 00:31:15;;;;;;;4.80;3.20;;;20.00;88.70;;;;;;5074538;28;20214;-67
2023/06/16 00:33:41;;;;;;;5.60;3.80;;;19.80;88.90;;;;;;5074529;28;20316;-67
2023/06/16 00:36:06;;;;;;;4.32;3.70;;;19.90;89.30;;;;;;5074481;28;20650;-67
2023/06/16 00:38:33;;;;;;;5.30;3.33;;;19.90;89.10;;;;;;5074427;28;20174;-67
2023/06/16 00:40:59;;;;;;;5.25;3.80;;;19.80;90.10;;;;;;5074529;28;20186;-67
2023/06/16 00:43:25;;;;;;;4.25;3.72;;;19.70;90.10;;;;;;5074457;28;20183;-67
2023/06/16 00:45:51;;;;;;;6.60;3.80;;;19.80;90.10;;;;;;5074481;28;20256;-67
2023/06/16 00:48:17;;;;;;;5.00;3.90;;;19.80;89.90;;;;;;5074140;28;20227;-67
2023/06/16 00:50:43;;;;;;;7.45;4.05;;;19.80;90.20;;;;;;5074290;28;20559;-68
2023/06/16 00:53:09;;;;;;;5.78;3.65;;;19.80;90.20;;;;;;5074327;28;20175;-68
2023/06/16 00:55:36;;;;;;;6.60;4.43;;;19.70;90.30;;;;;;5074203;28;20266;-67
2023/06/16 00:58:02;;;;;;;7.50;4.88;;;19.60;90.30;;;;;;5074243;28;20700;-65
2023/06/16 01:00:28;;;;;;;9.13;4.15;;;19.60;90.30;;;;;;5074002;28;20187;-67
2023/06/16 01:02:55;;;;;;;6.70;4.40;;;19.70;90.40;;;;;;5073860;28;20319;-67
2023/06/16 01:05:23;;;;;;;9.30;4.55;;;19.60;90.60;;;;;;5074104;28;20199;-67
2023/06/16 01:08:13;;;;;;;6.50;4.82;;;19.50;90.70;;;;;;5074011;28;20311;-67
2023/06/16 01:11:06;;;;;;;5.43;4.25;;;19.60;90.70;;;;;;5073778;28;20264;-67
2023/06/16 01:13:43;;;;;;;7.97;5.22;;;19.60;90.80;;;;;;5073995;28;20165;-67
2023/06/16 01:16:11;;;;;;;7.00;5.38;;;19.60;90.80;;;;;;5074170;28;20166;-67
2023/06/16 01:18:39;;;;;;;5.53;4.82;;;19.50;90.90;;;;;;5073777;28;20171;-67
2023/06/16 01:21:37;;;;;;;6.82;4.93;;;19.40;91.00;;;;;;5073688;28;20190;-67
2023/06/16 01:24:11;;;;;;;7.10;5.28;;;19.30;91.40;;;;;;5073803;28;20304;-67
2023/06/16 01:26:40;;;;;;;10.60;5.68;;;19.10;91.80;;;;;;5073769;28;20167;-68
2023/06/16 01:29:08;;;;;;;7.13;4.85;;;19.10;91.50;;;;;;5073625;28;20175;-67
2023/06/16 01:31:36;;;;;;;5.68;4.82;;;19.20;91.80;;;;;;5073522;28;20193;-67
2023/06/16 01:34:03;;;;;;;5.80;4.60;;;19.10;92.10;;;;;;5073405;28;20523;-66
2023/06/16 01:36:31;;;;;;;6.57;5.03;;;19.10;92.00;;;;;;5073325;28;20174;-67
2023/06/16 01:39:01;;;;;;;9.18;5.57;;;19.00;92.20;;;;;;5073505;28;20647;-67
2023/06/16 01:41:28;;;;;;;7.85;5.75;;;19.00;92.30;;;;;;5073308;28;20194;-67
2023/06/16 01:43:54;;;;;;;7.38;5.40;;;18.90;92.10;;;;;;5073425;28;20228;-67
2023/06/16 01:46:20;;;;;;;8.15;5.82;;;18.90;92.40;;;;;;5073270;28;20182;-67
2023/06/16 01:48:47;;;;;;;5.80;5.13;;;18.90;92.40;;;;;;5073290;28;20230;-67
2023/06/16 01:51:13;;;;;;;6.40;5.50;;;18.80;92.70;;;;;;5073148;28;20293;-67
2023/06/16 01:53:39;;;;;;;9.05;5.38;;;18.80;92.60;;;;;;5073210;28;20524;-67
2023/06/16 01:56:05;;;;;;;7.78;5.78;;;18.90;92.40;;;;;;5073212;28;20178;-67
2023/06/16 01:58:33;;;;;;;6.47;5.15;;;18.90;92.40;;;;;;5073057;28;20178;-67
2023/06/16 02:01:04;;;;;;;5.93;5.30;;;18.90;92.50;;;;;;5073202;28;20174;-67
2023/06/16 02:03:43;;;;;;;6.97;5.93;;;18.80;92.60;;;;;;5073140;28;20202;-67
2023/06/16 02:06:24;;;;;;;8.98;6.13;;;18.80;92.80;;;;;;5073210;28;20175;-67
2023/06/16 02:08:53;;;;;;;7.40;5.50;;;18.70;93.00;;;;;;5071945;28;20178;-67
2023/06/16 02:11:19;;;;;;;6.93;6.22;;;18.70;93.20;;;;;;5073082;28;20212;-67
2023/06/16 02:13:45;;;;;;;9.27;6.20;;;18.60;93.30;;;;;;5072906;28;20170;-67
2023/06/16 02:16:12;;;;;;;7.28;6.03;;;18.50;93.50;;;;;;5073336;28;20179;-67
2023/06/16 02:18:39;;;;;;;6.07;5.43;;;18.50;93.60;;;;;;5073471;28;20189;-67
2023/06/16 02:21:04;;;;;;;7.05;6.25;;;18.40;93.80;;;;;;5073092;28;20244;-67
2023/06/16 02:23:30;;;;;;;7.20;6.05;;;18.50;93.70;;;;;;5073185;28;20183;-67
2023/06/16 02:25:56;;;;;;;12.88;6.30;;;18.60;93.60;;;;;;5072949;28;20174;-67
2023/06/16 02:28:22;;;;;;;7.72;6.53;;;18.40;93.90;;;;;;5072856;28;20178;-67
2023/06/16 02:30:47;;;;;;;7.28;6.13;;;18.40;94.10;;;;;;5073871;28;20264;-67
2023/06/16 02:33:15;;;;;;;8.30;6.72;;;18.30;94.30;;;;;;5073116;28;20261;-67
2023/06/16 02:35:40;;;;;;;6.95;6.18;;;18.40;94.20;;;;;;5073197;28;20266;-67
2023/06/16 02:38:07;;;;;;;8.35;6.78;;;18.30;94.30;;;;;;5072831;28;20206;-67
2023/06/16 02:40:33;;;;;;;9.20;7.28;;;18.30;94.50;;;;;;5072829;28;20171;-67
2023/06/16 02:42:59;;;;;;;8.07;6.65;;;18.20;94.60;;;;;;5072738;28;20193;-67
2023/06/16 02:45:24;;;;;;;8.15;6.70;;;18.10;95.00;;;;;;5072905;28;20169;-67
2023/06/16 02:47:50;;;;;;;10.35;6.90;;;18.00;95.30;;;;;;5072667;28;20237;-67
2023/06/16 02:50:16;;;;;;;9.93;7.22;;;18.00;95.30;;;;;;5072819;28;20213;-67
2023/06/16 02:52:42;;;;;;;7.90;6.82;;;18.00;95.40;;;;;;5073026;28;20170;-67
2023/06/16 02:55:12;;;;;;;7.82;7.03;;;18.10;95.40;;;;;;5072668;28;20179;-67
2023/06/16 02:57:38;;;;;;;7.43;6.47;;;18.00;95.60;;;;;;5072601;28;20598;-66
2023/06/16 03:00:09;;;;;;;8.25;7.47;;;17.90;95.70;;;;;;5072816;28;20258;-67
2023/06/16 03:02:35;;;;;;;8.07;7.15;;;17.90;95.80;;;;;;5072851;28;20175;-67
2023/06/16 03:05:01;;;;;;;8.32;6.80;;;18.00;95.80;;;;;;5072554;28;20175;-67
2023/06/16 03:07:31;;;;;;;9.23;7.03;;;17.90;96.00;;;;;;5072541;28;20174;-66
2023/06/16 03:09:57;;;;;;;7.18;6.28;;;18.10;95.80;;;;;;5074910;28;20206;-67
2023/06/16 03:12:22;;;;;;;8.05;6.68;;;18.00;95.80;;;;;;5076106;28;20638;-67
2023/06/16 03:14:48;;;;;;;8.20;6.97;;;18.00;95.90;;;;;;5076546;28;20174;-67
2023/06/16 03:17:14;;;;;;;7.82;7.05;;;17.90;96.10;;;;;;5075976;28;20171;-66
2023/06/16 03:19:42;;;;;;;9.18;7.47;;;17.90;96.10;;;;;;5076089;28;20179;-67
2023/06/16 03:22:07;;;;;;;10.98;7.85;;;18.00;95.90;;;;;;5076000;28;20220;-67
2023/06/16 03:24:33;;;;;;;8.98;7.38;;;17.80;96.30;;;;;;5075816;28;20182;-67
2023/06/16 03:26:59;;;;;;;15.13;8.40;;;17.90;96.60;;;;;;5074694;28;20246;-67
2023/06/16 03:29:25;;;;;;;9.38;8.25;;;17.70;96.70;;;;;;5075931;28;20571;-67
2023/06/16 03:31:51;;;;;;;14.02;8.70;;;17.60;97.00;;;;;;5075993;28;20190;-67
2023/06/16 03:34:16;;;;;;;9.40;8.40;;;17.60;97.10;;;;;;5074628;28;20178;-67
2023/06/16 03:36:42;;;;;;;9.75;7.88;;;17.70;96.90;;;;;;5075779;28;20650;-67
2023/06/16 03:39:08;;;;;;;9.48;8.00;;;17.70;97.10;;;;;;5075725;28;20227;-66
2023/06/16 03:41:34;;;;;;;9.15;8.05;;;17.80;97.00;;;;;;5075885;28;20269;-67
2023/06/16 03:44:00;;;;;;;11.32;9.25;;;17.70;97.20;;;;;;5075668;28;20239;-67
2023/06/16 03:46:31;;;;;;;13.18;9.02;;;17.50;97.90;;;;;;5075637;28;20249;-65
2023/06/16 03:48:57;;;;;;;12.15;8.13;;;17.60;97.90;;;;;;5075327;28;20248;-67
2023/06/16 03:51:24;;;;;;;10.77;8.35;;;17.60;97.90;;;;;;5075568;28;20211;-67
2023/06/16 03:53:51;;;;;;;9.80;8.65;;;17.70;97.90;;;;;;5075316;28;20203;-66
2023/06/16 03:56:17;;;;;;;10.13;7.93;;;17.60;98.20;;;;;;5075518;28;20179;-67
2023/06/16 03:58:43;;;;;;;11.00;8.30;;;17.70;98.20;;;;;;5075525;28;20203;-67
2023/06/16 04:01:09;;;;;;;9.63;7.85;;;17.80;98.10;;;;;;5075650;28;20296;-67
2023/06/16 04:03:35;;;;;;;10.90;8.10;;;17.70;98.30;;;;;;5075361;28;20220;-67
2023/06/16 04:06:01;;;;;;;13.13;8.82;;;17.50;98.80;;;;;;5075290;28;20170;-67
2023/06/16 04:08:27;;;;;;;9.52;8.27;;;17.60;99.10;;;;;;5075139;28;20697;-66
2023/06/16 04:10:57;;;;;;;11.65;9.05;;;17.70;98.80;;;;;;5075268;28;20215;-66
2023/06/16 04:13:24;;;;;;;10.63;8.13;;;17.60;99.20;;;;;;5075141;28;20183;-66
2023/06/16 04:15:49;;;;;;;12.23;8.80;;;17.50;99.50;;;;;;5075234;28;20194;-66
2023/06/16 04:18:15;;;;;;;12.23;8.70;;;17.50;99.80;;;;;;5074883;28;20209;-66
2023/06/16 04:20:41;;;;;;;12.23;9.05;;;17.50;99.90;;;;;;5074618;28;20210;-66
2023/06/16 04:23:09;;;;;;;12.13;9.02;;;17.60;99.90;;;;;;5074770;28;20177;-66
2023/06/16 04:25:35;;;;;;;15.27;9.18;;;17.70;99.70;;;;;;5074898;28;20179;-66
2023/06/16 04:28:01;;;;;;;10.73;8.98;;;17.70;99.80;;;;;;5074822;28;20182;-66
2023/06/16 04:30:30;;;;;;;11.52;9.07;;;17.80;99.80;;;;;;5074823;28;20198;-66
2023/06/16 04:32:59;;;;;;;9.30;8.27;;;17.80;99.80;;;;;;5074692;28;20174;-66
2023/06/16 04:35:29;;;;;;;11.10;9.55;;;17.90;99.80;;;;;;5074558;28;20175;-66
2023/06/16 04:37:56;;;;;;;9.80;8.77;;;18.00;99.80;;;;;;5074845;28;20159;-66
2023/06/16 04:40:23;;;;;;;10.73;8.55;;;18.00;99.80;;;;;;5074636;28;20179;-66
2023/06/16 04:42:49;;;;;;;12.63;8.80;;;18.10;99.70;;;;;;5074440;28;20524;-66
2023/06/16 04:45:15;;;;;;;9.52;7.80;;;18.20;99.50;;;;;;5074741;28;20171;-66
2023/06/16 04:47:42;;;;;;;10.10;8.55;;;18.20;99.40;;;;;;5074305;28;20178;-66
2023/06/16 04:50:09;;;;;;;11.80;8.65;;;18.20;99.40;;;;;;5074169;28;20218;-66
2023/06/16 04:52:36;;;;;;;11.13;8.48;;;18.30;99.40;;;;;;5074641;28;20179;-67
2023/06/16 04:55:03;;;;;;;12.00;8.70;;;18.40;99.30;;;;;;5074264;28;20174;-66
2023/06/16 04:57:29;;;;;;;16.80;9.90;;;18.40;99.50;;;;;;5074297;28;20179;-66
2023/06/16 04:59:54;;;;;;;10.68;8.50;;;18.30;99.50;;;;;;5074126;28;20182;-66
2023/06/16 05:02:20;;;;;;;10.25;8.45;;;18.20;99.80;;;;;;5074182;28;20178;-66
2023/06/16 05:04:48;;;;;;;11.40;9.10;;;18.30;99.60;;;;;;5073956;28;20555;-66
2023/06/16 05:07:14;;;;;;;10.77;8.20;;;18.30;99.50;;;;;;5074192;28;20166;-63
2023/06/16 05:09:39;;;;;;;8.77;7.88;;;18.50;99.50;;;;;;5072648;28;20723;-62
2023/06/16 05:12:09;;;;;;;11.15;8.75;;;18.50;99.10;;;;;;5070885;28;20265;-62
2023/06/16 05:14:34;;;;;;;11.95;8.43;;;18.60;99.00;;;;;;5072761;28;20175;-63
2023/06/16 05:17:00;;;;;;;12.35;7.80;;;18.60;98.80;;;;;;5073367;28;20222;-62
2023/06/16 05:19:26;;;;;;;11.30;8.35;;;18.60;98.90;;;;;;5073546;28;20523;-63
2023/06/16 05:21:52;;;;;;;10.90;8.32;;;18.80;98.80;;;;;;5073886;28;20273;-63
2023/06/16 05:24:18;;;;;;;9.55;8.55;;;18.90;98.50;;;;;;5073959;28;20679;-63
2023/06/16 05:26:47;;;;;;;9.10;8.20;;;19.00;98.40;;;;;;5073756;28;20167;-63
2023/06/16 05:29:12;;;;;;;13.57;8.55;;;19.10;98.30;;;;;;5073734;28;20167;-63
2023/06/16 05:31:38;;;;;;;11.70;8.20;;;19.10;97.50;;;;;;5072886;28;20213;-63
2023/06/16 05:34:03;;;;;;;10.00;7.93;;;19.20;96.00;;;;;;5073454;28;20171;-63
2023/06/16 05:36:31;;;;;;;14.02;7.82;;;19.30;96.10;;;;;;5073714;28;20336;-62
2023/06/16 05:38:56;;;;;;;12.63;9.30;;;19.30;95.80;;;;;;5073539;28;20608;-63
2023/06/16 05:41:24;;;;;;;14.73;8.98;;;19.40;94.60;;;;;;5073620;28;20185;-63
2023/06/16 05:43:56;;;;;;;12.90;9.75;;;19.20;94.40;;;;;;5073532;28;20181;-63
2023/06/16 05:46:22;;;;;;;16.58;9.38;;;19.30;95.00;;;;;;5072487;28;20185;-63
2023/06/16 05:48:48;;;;;;;14.63;9.05;;;19.30;95.50;;;;;;5072923;28;20226;-62
2023/06/16 05:51:15;;;;;;;9.73;8.38;;;19.40;96.00;;;;;;5072884;28;20218;-63
2023/06/16 05:53:41;;;;;;;13.75;9.02;;;19.40;96.00;;;;;;5053408;28;20167;-63
2023/06/16 05:56:06;;;;;;;11.30;8.40;;;19.50;94.90;;;;;;5053509;28;20642;-63
2023/06/16 05:58:36;;;;;;;12.95;9.13;;;19.60;95.00;;;;;;5053270;28;20167;-63
2023/06/16 06:01:06;;;;;;;14.95;9.95;;;19.70;94.30;;;;;;5053249;28;20531;-63
2023/06/16 06:03:32;;;;;;;11.77;9.77;;;19.60;94.00;;;;;;5053459;28;20236;-63
2023/06/16 06:05:58;;;;;;;11.30;9.07;;;19.70;93.20;;;;;;5053358;28;20562;-62
2023/06/16 06:08:27;;;;;;;13.73;9.38;;;19.70;93.60;;;;;;5053253;28;20216;-63
2023/06/16 06:10:54;;;;;;;14.73;9.60;;;19.90;93.40;;;;;;5052505;28;20338;-63
2023/06/16 06:13:20;;;;;;;12.40;9.45;;;19.90;94.40;;;;;;5053130;28;20543;-63
2023/06/16 06:15:46;;;;;;;18.33;9.95;;;20.00;93.40;;;;;;5053000;28;20159;-63
2023/06/16 06:18:11;;;;;;;12.20;8.85;;;20.10;93.20;;;;;;5052133;28;20182;-62
2023/06/16 06:20:41;;;;;;;13.43;9.13;;;20.20;93.00;;;;;;5053161;28;20624;-63
2023/06/16 06:23:07;;;;;;;13.85;9.05;;;20.20;92.70;;;;;;5053132;28;20225;-63
2023/06/16 06:25:33;;;;;;;10.65;8.55;;;20.40;91.90;;;;;;5053069;28;20179;-63
2023/06/16 06:27:58;;;;;;;13.38;9.27;;;20.60;91.60;;;;;;5053073;28;20549;-63
2023/06/16 06:30:27;;;;;;;13.65;8.35;;;20.70;91.40;;;;;;5052705;28;20207;-63
2023/06/16 06:32:53;;;;;;;13.38;8.40;;;20.80;91.10;;;;;;5053048;28;20225;-63
2023/06/16 06:35:19;;;;;;;11.88;8.63;;;20.90;91.30;;;;;;5052940;28;20628;-62
2023/06/16 06:37:44;;;;;;;12.50;9.43;;;20.80;90.50;;;;;;5052981;28;20203;-63
2023/06/16 06:40:10;;;;;;;9.63;8.38;;;20.80;90.20;;;;;;5052876;28;20258;-63
2023/06/16 06:42:36;;;;;;;12.10;8.27;;;21.00;91.00;;;;;;5053074;28;20167;-63
2023/06/16 06:45:01;;;;;;;10.77;8.68;;;21.00;90.80;;;;;;5056583;28;20175;-63
2023/06/16 06:47:27;;;;;;;13.63;8.73;;;21.10;90.40;;;;;;5056958;28;20210;-63
2023/06/16 06:49:56;;;;;;;11.65;8.48;;;21.10;90.20;;;;;;5056740;28;20680;-63
2023/06/16 06:52:21;;;;;;;9.52;7.20;;;21.30;89.50;;;;;;5056755;28;20229;-62
2023/06/16 06:54:47;;;;;;;8.90;6.25;;;21.50;90.00;;;;;;5056543;28;20548;-63
2023/06/16 06:57:13;;;;;;;11.68;6.63;;;21.60;85.90;;;;;;5056503;28;20628;-63
2023/06/16 06:59:41;;;;;;;9.25;6.32;;;21.70;85.40;;;;;;5056370;28;20171;-63
2023/06/16 07:02:06;;;;;;;9.82;5.88;;;21.70;86.10;;;;;;5056567;28;20175;-63
2023/06/16 07:04:33;;;;;;;10.32;6.07;;;21.90;85.10;;;;;;5056618;28;20179;-62
2023/06/16 07:07:00;;;;;;;7.72;6.05;;;22.00;85.10;;;;;;5056339;28;20179;-63
2023/06/16 07:09:25;;;;;;;9.95;6.05;;;22.20;84.40;;;;;;5056199;28;20178;-63
2023/06/16 07:11:51;;;;;;;7.28;5.93;;;22.40;84.00;;;;;;5055010;28;20175;-63
2023/06/16 07:14:17;;;;;;;8.98;5.28;;;22.40;82.20;;;;;;5056112;28;20210;-63
2023/06/16 07:16:42;;;;;;;8.38;5.28;;;22.70;84.10;;;;;;5056501;28;20182;-63
2023/06/16 07:19:08;;;;;;;5.78;5.10;;;22.80;81.70;;;;;;5056245;28;20178;-63
2023/06/16 07:21:33;;;;;;;10.63;5.38;;;22.90;81.70;;;;;;5056114;28;20167;-63
2023/06/16 07:23:59;;;;;;;7.65;5.30;;;23.10;81.20;;;;;;5056026;28;20580;-63
2023/06/16 07:26:25;;;;;;;7.97;5.53;;;23.10;81.10;;;;;;5055939;28;20167;-63
2023/06/16 07:28:51;;;;;;;10.05;5.25;;;23.10;80.10;;;;;;5055788;28;20183;-63
2023/06/16 07:31:17;;;;;;;6.38;5.13;;;23.00;81.50;;;;;;5055984;28;20211;-63
2023/06/16 07:33:42;;;;;;;7.93;5.75;;;23.10;81.30;;;;;;5056205;28;20175;-63
2023/06/16 07:36:08;;;;;;;9.68;5.45;;;23.00;79.50;;;;;;5055889;28;20221;-64
2023/06/16 07:38:34;;;;;;;7.93;5.40;;;22.80;81.20;;;;;;5055756;28;20617;-63
2023/06/16 07:41:02;;;;;;;14.15;5.63;;;23.00;82.20;;;;;;5055768;28;20190;-63
2023/06/16 07:43:27;;;;;;;9.80;5.43;;;23.10;81.20;;;;;;5055567;28;20184;-63
2023/06/16 07:45:53;;;;;;;8.98;5.03;;;23.30;80.90;;;;;;5055790;28;20178;-63
2023/06/16 07:48:18;;;;;;;6.40;4.68;;;23.40;80.90;;;;;;5055549;28;20545;-63
2023/06/16 07:50:44;;;;;;;9.13;5.40;;;23.60;81.30;;;;;;5055666;28;20215;-63
2023/06/16 07:53:10;;;;;;;9.85;5.80;;;23.80;79.90;;;;;;5055489;28;20507;-63
2023/06/16 07:55:35;;;;;;;13.45;6.32;;;23.90;79.30;;;;;;5054693;28;20535;-63
2023/06/16 07:58:02;;;;;;;8.02;5.53;;;23.70;78.20;;;;;;5055355;28;20171;-63
2023/06/16 08:00:27;;;;;;;10.23;5.95;;;23.80;81.10;;;;;;5055579;28;20236;-63
2023/06/16 08:02:53;;;;;;;10.15;5.32;;;24.10;80.80;;;;;;5055394;28;20554;-63
2023/06/16 08:05:22;;;;;;;13.75;5.70;;;24.20;80.40;;;;;;5054196;28;20183;-63
2023/06/16 08:07:48;;;;;;;11.85;5.70;;;24.20;81.00;;;;;;5068036;28;20183;-63
2023/06/16 08:10:19;;;;;;;11.25;5.95;;;24.30;80.40;;;;;;5074578;28;20221;-63
2023/06/16 08:12:45;;;;;;;13.65;5.93;;;24.40;78.70;;;;;;5074962;28;20213;-63
2023/06/16 08:15:10;;;;;;;14.60;6.10;;;24.60;80.00;;;;;;5074301;28;20209;-63
2023/06/16 08:17:36;;;;;;;14.75;5.93;;;24.50;79.00;;;;;;5075157;28;20211;-63
2023/06/16 08:20:06;;;;;;;11.57;6.25;;;24.70;78.70;;;;;;5074908;28;20189;-63
2023/06/16 08:22:32;;;;;;;10.52;5.88;;;24.80;77.60;;;;;;5074740;28;20170;-63
2023/06/16 08:24:57;;;;;;;8.75;5.57;;;24.90;77.30;;;;;;5074890;28;20187;-63
2023/06/16 08:27:23;;;;;;;12.15;5.75;;;25.00;78.10;;;;;;5074656;28;20198;-63
2023/06/16 08:29:50;;;;;;;7.43;4.85;;;24.80;77.30;;;;;;5074719;28;20209;-63
2023/06/16 08:32:16;;;;;;;8.85;4.65;;;24.70;76.50;;;;;;5074618;28;20304;-63
2023/06/16 08:34:41;;;;;;;7.68;5.00;;;24.70;74.30;;;;;;5074701;28;20194;-63
2023/06/16 08:37:08;;;;;;;13.48;5.50;;;24.90;76.90;;;;;;5074671;28;20167;-63
2023/06/16 08:39:33;;;;;;;7.80;5.03;;;25.10;76.00;;;;;;5074505;28;20170;-63
2023/06/16 08:42:00;;;;;;;9.30;5.43;;;25.40;78.80;;;;;;5074776;28;20166;-63
2023/06/16 08:44:28;;;;;;;7.10;5.18;;;25.70;78.00;;;;;;5074702;28;20205;-63
2023/06/16 08:46:54;;;;;;;7.50;5.60;;;25.80;77.10;;;;;;5074371;28;20607;-63
2023/06/16 08:49:19;;;;;;;8.60;4.90;;;25.80;75.30;;;;;;5074136;28;20280;-63
2023/06/16 08:51:50;;;;;;;10.82;5.47;;;25.90;76.20;;;;;;5074244;28;20206;-63
2023/06/16 08:54:20;;;;;;;8.05;4.80;;;25.90;75.50;;;;;;5074230;28;20189;-63
2023/06/16 08:56:48;;;;;;;12.30;5.40;;;25.80;74.50;;;;;;5074387;28;20175;-64
2023/06/16 08:59:15;;;;;;;9.70;5.28;;;26.20;75.10;;;;;;5074718;28;20162;-63
2023/06/16 09:01:44;;;;;;;6.70;5.03;;;26.20;72.90;;;;;;5074246;28;20175;-63
2023/06/16 09:04:09;;;;;;;9.05;4.88;;;26.20;73.90;;;;;;5074127;28;20258;-64
2023/06/16 09:06:44;;;;;;;7.85;4.93;;;26.50;73.30;;;;;;5072947;28;20254;-63
2023/06/16 09:09:09;;;;;;;5.45;4.88;;;26.50;72.80;;;;;;5074221;28;20657;-64
2023/06/16 09:11:35;;;;;;;7.45;4.63;;;26.20;74.30;;;;;;5074033;28;20206;-64
2023/06/16 09:14:12;;;;;;;6.15;4.00;;;26.20;72.90;;;;;;5073990;28;20265;-65
2023/06/16 09:16:39;;;;;;;5.93;4.60;;;26.50;73.80;;;;;;5073747;28;20608;-64
2023/06/16 09:19:08;;;;;;;9.88;4.78;;;26.70;74.20;;;;;;5073756;28;20203;-64
2023/06/16 09:21:35;;;;;;;7.00;5.47;;;26.80;72.60;;;;;;5073656;28;20210;-64
2023/06/16 09:24:01;;;;;;;9.90;5.28;;;26.90;71.40;;;;;;5073597;28;20690;-64
2023/06/16 09:26:35;;;;;;;7.45;4.50;;;27.20;72.40;;;;;;5073827;28;20173;-63
2023/06/16 09:29:03;;;;;;;5.90;4.75;;;27.20;73.50;;;;;;5073605;28;20179;-64
2023/06/16 09:31:28;;;;;;;8.90;5.15;;;27.30;73.30;;;;;;5073461;28;20206;-63
2023/06/16 09:34:06;;;;;;;7.85;5.20;;;27.20;70.60;;;;;;5073235;28;20208;-63
2023/06/16 09:36:32;;;;;;;7.60;4.57;;;27.40;72.90;;;;;;5073705;28;20611;-64
2023/06/16 09:38:58;;;;;;;7.22;4.50;;;27.30;72.90;;;;;;5073624;28;20177;-64
2023/06/16 09:41:23;;;;;;;8.82;4.72;;;27.50;72.90;;;;;;5073620;28;20236;-64
2023/06/16 09:43:51;;;;;;;5.78;3.80;;;27.60;72.10;;;;;;5073491;28;20179;-64
2023/06/16 09:46:18;;;;;;;7.43;5.10;;;27.70;72.70;;;;;;5073209;28;20196;-64
2023/06/16 09:48:48;;;;;;;7.10;4.45;;;27.90;71.10;;;;;;5073634;28;20224;-64
2023/06/16 09:51:23;;;;;;;7.32;4.07;;;27.80;69.30;;;;;;5073600;28;20206;-64
2023/06/16 09:53:51;;;;;;;7.22;4.53;;;27.90;70.90;;;;;;5073437;28;20170;-64
2023/06/16 09:56:17;;;;;;;6.88;4.78;;;28.00;69.80;;;;;;5073242;28;20163;-63
2023/06/16 09:58:44;;;;;;;6.18;4.05;;;28.10;68.30;;;;;;5073244;28;20357;-64
2023/06/16 10:01:13;;;;;;;7.97;4.32;;;28.10;68.00;;;;;;5073180;28;20189;-62
2023/06/16 10:03:41;;;;;;;8.73;4.47;;;28.10;68.40;;;;;;5073360;28;20166;-64
2023/06/16 10:06:16;;;;;;;8.18;4.90;;;28.20;69.30;;;;;;5073348;28;20228;-63
2023/06/16 10:08:43;;;;;;;6.75;4.40;;;28.20;69.00;;;;;;5073338;28;20197;-64
2023/06/16 10:11:15;;;;;;;6.90;3.90;;;28.30;69.50;;;;;;5073049;28;20205;-63
2023/06/16 10:13:52;;;;;;;5.95;4.40;;;28.10;68.10;;;;;;5073366;28;20161;-64
2023/06/16 10:16:21;;;;;;;5.15;4.28;;;28.30;68.50;;;;;;5073071;28;20219;-64
2023/06/16 10:18:48;;;;;;;6.75;3.92;;;28.30;68.50;;;;;;5075537;28;20171;-64
2023/06/16 10:21:15;;;;;;;6.50;4.10;;;28.30;66.90;;;;;;5077329;28;20170;-64
2023/06/16 10:23:40;;;;;;;4.82;3.80;;;28.40;67.20;;;;;;5077194;28;20174;-64
2023/06/16 10:26:07;;;;;;;6.88;3.72;;;28.50;66.80;;;;;;5077040;28;20519;-63
2023/06/16 10:28:35;;;;;;;5.75;3.63;;;28.70;67.00;;;;;;5077135;28;20167;-64
2023/06/16 10:31:03;;;;;;;6.13;3.72;;;28.60;66.00;;;;;;5077043;28;20283;-64
2023/06/16 10:33:28;;;;;;;5.68;3.20;;;28.60;66.30;;;;;;5076927;28;20189;-64
2023/06/16 10:36:01;;;;;;;3.25;2.65;;;28.50;65.10;;;;;;5077084;28;20607;-64
2023/06/16 10:38:34;;;;;;;6.00;3.03;;;28.70;66.50;;;;;;5077218;28;20163;-64
2023/06/16 10:41:06;;;;;;;4.35;2.95;;;28.90;66.40;;;;;;5077008;28;20170;-63
2023/06/16 10:43:32;;;;;;;3.38;3.08;;;29.10;65.50;;;;;;5076834;28;20179;-64
2023/06/16 10:46:20;;;;;;;4.95;2.58;;;28.70;61.30;;;;;;5076870;28;20569;-64
2023/06/16 10:49:10;;;;;;;3.85;3.08;;;28.80;64.40;;;;;;5076761;28;20240;-64
2023/06/16 10:51:49;;;;;;;5.10;3.55;;;29.10;65.40;;;;;;5076829;28;20716;-64
2023/06/16 10:54:51;;;;;;;5.50;3.22;;;29.20;64.90;;;;;;5076607;28;20209;-64
2023/06/16 10:57:17;;;;;;;4.85;3.10;;;29.30;64.60;;;;;;5033469;28;20180;-64
2023/06/16 11:00:12;;;;;;;4.72;3.15;;;29.40;64.50;;;;;;5067121;28;20243;-64
2023/06/16 11:02:51;;;;;;;4.35;3.22;;;29.50;63.20;;;;;;5071931;28;20235;-64
2023/06/16 11:05:22;;;;;;;5.90;3.15;;;28.90;63.60;;;;;;5075588;28;20171;-64
2023/06/16 11:07:58;;;;;;;6.00;3.47;;;29.20;64.90;;;;;;5075392;28;20174;-64
2023/06/16 11:10:24;;;;;;;5.95;3.22;;;29.20;62.70;;;;;;5075484;28;20201;-64
2023/06/16 11:12:50;;;;;;;4.07;3.35;;;29.30;64.50;;;;;;5075516;28;20635;-64
2023/06/16 11:15:16;;;;;;;4.60;3.08;;;29.30;62.90;;;;;;5075456;28;20201;-64
2023/06/16 11:17:47;;;;;;;5.70;3.05;;;29.20;63.60;;;;;;5075135;28;20643;-64
2023/06/16 11:20:13;;;;;;;4.53;3.28;;;29.40;64.90;;;;;;5075088;28;20654;-64
2023/06/16 11:22:45;;;;;;;5.82;3.40;;;29.60;65.20;;;;;;5075438;28;20181;-64
2023/06/16 11:25:12;;;;;;;5.32;3.38;;;29.60;64.40;;;;;;5075523;28;20166;-64
2023/06/16 11:27:38;;;;;;;8.38;3.70;;;29.50;63.40;;;;;;5075055;28;20169;-64
2023/06/16 11:30:08;;;;;;;5.82;3.50;;;29.60;63.60;;;;;;5073828;28;20190;-65
2023/06/16 11:32:37;;;;;;;7.13;3.08;;;29.90;64.40;;;;;;5074979;28;20209;-64
2023/06/16 11:35:03;;;;;;;5.93;3.85;;;29.90;63.00;;;;;;5074701;28;20178;-64
2023/06/16 11:37:49;;;;;;;4.30;3.28;;;29.60;62.70;;;;;;5075126;28;20171;-64
2023/06/16 11:40:26;;;;;;;5.53;3.10;;;29.00;63.20;;;;;;5074953;28;20181;-64
2023/06/16 11:43:03;;;;;;;4.72;3.38;;;29.30;66.20;;;;;;5074958;28;20159;-64
2023/06/16 11:45:47;;;;;;;5.50;3.30;;;29.10;63.70;;;;;;5075062;28;20166;-64
2023/06/16 11:48:13;;;;;;;8.00;3.67;;;28.90;62.20;;;;;;5074733;28;20226;-64
2023/06/16 11:50:40;;;;;;;4.47;3.70;;;28.90;62.60;;;;;;5074762;28;20205;-64
2023/06/16 11:53:05;;;;;;;4.57;3.50;;;29.10;63.10;;;;;;5074800;28;20162;-64
2023/06/16 11:55:31;;;;;;;5.05;3.20;;;29.30;63.00;;;;;;5074586;28;20178;-64
2023/06/16 11:57:57;;;;;;;4.55;3.30;;;29.10;62.40;;;;;;5074530;28;20189;-65
2023/06/16 12:00:23;;;;;;;5.32;3.50;;;29.30;62.40;;;;;;5074650;28;20218;-64
2023/06/16 12:02:50;;;;;;;4.18;3.38;;;29.20;62.30;;;;;;5074452;28;20246;-64
2023/06/16 12:05:28;;;;;;;6.45;3.33;;;29.10;62.50;;;;;;5074534;28;20535;-64
2023/06/16 12:07:54;;;;;;;4.60;3.35;;;29.20;63.50;;;;;;5074420;28;20650;-64
2023/06/16 12:10:22;;;;;;;4.15;3.75;;;28.60;63.20;;;;;;5074150;28;20203;-64
2023/06/16 12:12:48;;;;;;;8.38;3.35;;;28.10;63.70;;;;;;5074516;28;20167;-64
2023/06/16 12:15:16;;;;;;;3.72;3.30;;;27.60;63.50;;;;;;5074359;28;20174;-64
2023/06/16 12:17:42;;;;;;;4.80;3.20;;;27.60;64.60;;;;;;5074119;28;20205;-64
2023/06/16 12:20:12;;;;;;;4.35;2.97;;;27.20;64.00;;;;;;5074144;28;20170;-64
2023/06/16 12:22:38;;;;;;;5.93;3.38;;;27.10;65.80;;;;;;5074022;28;20167;-64
2023/06/16 12:25:15;;;;;;;3.55;2.88;;;27.00;65.50;;;;;;5074242;28;20317;-64
2023/06/16 12:27:52;;;;;;;3.42;3.13;;;27.00;67.10;;;;;;5074316;28;20162;-65
2023/06/16 12:30:18;;;;;;;5.00;3.42;;;26.90;68.00;;;;;;5073954;28;20276;-64
2023/06/16 12:32:45;;;;;;;6.35;3.40;;;27.00;68.20;;;;;;5073910;28;20277;-65
2023/06/16 12:35:11;;;;;;;3.47;2.97;;;27.60;66.60;;;;;;5073586;28;20198;-64
2023/06/16 12:37:41;;;;;;;4.50;3.30;;;28.00;67.30;;;;;;5073973;28;20269;-65
2023/06/16 12:40:10;;;;;;;5.72;3.65;;;28.50;67.20;;;;;;5073766;28;20578;-65
2023/06/16 12:42:37;;;;;;;5.43;3.30;;;28.70;64.60;;;;;;5073502;28;20667;-65
2023/06/16 12:45:05;;;;;;;5.32;3.50;;;28.70;64.90;;;;;;5073634;28;20182;-64
2023/06/16 12:47:32;;;;;;;6.13;4.00;;;28.90;65.30;;;;;;5073377;28;20181;-64